Time;durP1;ratioP1;P1;durP2;ratioP2;P2;SDS_P1;SDS_P2;PMS_P1;PMS_P2;Temp;Humidity;BMP_temperature;BMP_pressure;BME280_temperature;BME280_humidity;BME280_pressure;Samples;Min_cycle;Max_cycle;Signal;HPM_P1;HPM_P2
2023/04/06 00:00:31;;;;;;;59.78;11.95;;;11.30;66.20;;;;;;5044327;28;20074;-56
2023/04/06 00:02:56;;;;;;;60.53;12.43;;;11.30;66.20;;;;;;5026617;28;20038;-56
2023/04/06 00:05:22;;;;;;;51.50;11.00;;;11.30;66.50;;;;;;5026659;28;20048;-56
2023/04/06 00:07:48;;;;;;;46.22;11.43;;;11.20;66.20;;;;;;5026843;28;20037;-56
2023/04/06 00:10:14;;;;;;;49.45;11.15;;;11.20;66.20;;;;;;5044459;28;20439;-56
2023/04/06 00:12:40;;;;;;;50.58;11.75;;;11.20;66.90;;;;;;5044402;28;20034;-56
2023/04/06 00:15:06;;;;;;;63.35;11.98;;;11.10;66.30;;;;;;5043117;28;20061;-56
2023/04/06 00:17:31;;;;;;;61.03;12.77;;;11.10;66.30;;;;;;5045142;28;20021;-55
2023/04/06 00:19:57;;;;;;;46.22;12.50;;;11.10;66.30;;;;;;5047254;28;20436;-56
2023/04/06 00:22:22;;;;;;;47.63;12.07;;;11.10;66.20;;;;;;5048395;28;20021;-56
2023/04/06 00:24:48;;;;;;;43.63;12.57;;;11.10;66.20;;;;;;5048229;28;20021;-56
2023/04/06 00:27:14;;;;;;;42.33;11.68;;;11.10;66.30;;;;;;5047458;28;20428;-56
2023/04/06 00:29:40;;;;;;;33.03;10.88;;;11.10;66.50;;;;;;5046759;28;20025;-56
2023/04/06 00:32:05;;;;;;;39.88;10.77;;;11.00;66.50;;;;;;5046663;28;20025;-56
2023/04/06 00:34:31;;;;;;;38.03;10.27;;;11.00;66.50;;;;;;5046882;28;20040;-55
2023/04/06 00:36:57;;;;;;;37.75;10.73;;;11.00;66.70;;;;;;5030189;28;20081;-56
2023/04/06 00:39:22;;;;;;;38.75;11.30;;;11.00;66.80;;;;;;5046665;28;20045;-56
2023/04/06 00:41:50;;;;;;;37.00;10.43;;;10.90;66.80;;;;;;5048138;28;20025;-56
2023/04/06 00:44:16;;;;;;;35.03;10.20;;;10.90;66.80;;;;;;5046704;28;20059;-55
2023/04/06 00:46:41;;;;;;;39.83;10.27;;;10.90;66.80;;;;;;5046447;28;20442;-55
2023/04/06 00:49:07;;;;;;;39.45;10.70;;;10.90;66.90;;;;;;5047924;28;20030;-56
2023/04/06 00:51:33;;;;;;;38.65;9.88;;;10.80;66.90;;;;;;5047531;28;20064;-56
2023/04/06 00:53:58;;;;;;;31.52;9.55;;;10.80;66.90;;;;;;5046452;28;20021;-56
2023/04/06 00:56:26;;;;;;;32.10;9.35;;;10.90;67.00;;;;;;5047530;28;20184;-56
2023/04/06 00:58:51;;;;;;;33.30;9.93;;;10.80;66.90;;;;;;5029981;28;20157;-56
2023/04/06 01:01:17;;;;;;;34.13;8.63;;;10.80;67.00;;;;;;5026405;28;20025;-56
2023/04/06 01:03:44;;;;;;;33.58;10.07;;;10.80;67.00;;;;;;5026527;28;20058;-56
2023/04/06 01:06:10;;;;;;;31.83;9.02;;;10.70;67.00;;;;;;5045251;28;20030;-56
2023/04/06 01:08:36;;;;;;;32.88;9.00;;;10.70;67.10;;;;;;5045926;28;20034;-56
2023/04/06 01:11:01;;;;;;;29.67;8.80;;;10.70;67.20;;;;;;5029365;28;20032;-56
2023/04/06 01:13:27;;;;;;;38.13;9.05;;;10.70;67.20;;;;;;5047483;28;20035;-56
2023/04/06 01:15:52;;;;;;;27.52;9.15;;;10.60;67.20;;;;;;5047067;28;20029;-55
2023/04/06 01:18:18;;;;;;;30.77;9.55;;;10.60;67.20;;;;;;5029245;28;20037;-56
2023/04/06 01:20:44;;;;;;;39.60;9.80;;;10.60;67.30;;;;;;5045769;28;20089;-56
2023/04/06 01:23:09;;;;;;;24.45;8.85;;;10.60;67.40;;;;;;5046985;28;20041;-56
2023/04/06 01:25:35;;;;;;;24.92;8.88;;;10.50;67.30;;;;;;5029420;28;20040;-56
2023/04/06 01:28:00;;;;;;;25.17;9.15;;;10.50;67.40;;;;;;5046628;28;20067;-55
2023/04/06 01:30:26;;;;;;;22.55;7.82;;;10.50;67.40;;;;;;5046738;28;20032;-56
2023/04/06 01:32:52;;;;;;;28.15;10.05;;;10.50;67.40;;;;;;5045683;28;20041;-56
2023/04/06 01:35:18;;;;;;;27.73;9.32;;;10.50;67.40;;;;;;5029273;28;20014;-55
2023/04/06 01:37:44;;;;;;;29.95;8.43;;;10.50;67.40;;;;;;5046672;28;20049;-56
2023/04/06 01:40:11;;;;;;;32.03;9.73;;;10.50;67.40;;;;;;5045707;28;20442;-56
2023/04/06 01:42:36;;;;;;;27.67;8.55;;;10.40;67.40;;;;;;5046509;28;20029;-56
2023/04/06 01:45:02;;;;;;;22.85;8.25;;;10.40;67.50;;;;;;5045601;28;20025;-56
2023/04/06 01:47:28;;;;;;;25.42;7.97;;;10.40;67.50;;;;;;5046699;28;20026;-56
2023/04/06 01:49:53;;;;;;;18.80;8.30;;;10.40;67.60;;;;;;5046609;28;20049;-56
2023/04/06 01:52:19;;;;;;;21.33;7.60;;;10.40;67.60;;;;;;5028795;28;20029;-56
2023/04/06 01:54:45;;;;;;;25.08;8.48;;;10.30;67.60;;;;;;5045186;28;20037;-56
2023/04/06 01:57:10;;;;;;;18.58;7.97;;;10.30;67.70;;;;;;5045407;28;20026;-56
2023/04/06 01:59:36;;;;;;;23.42;7.55;;;10.30;67.80;;;;;;5028314;28;20477;-56
2023/04/06 02:02:01;;;;;;;23.83;8.32;;;10.30;67.80;;;;;;5044860;28;20328;-56
2023/04/06 02:04:27;;;;;;;19.55;7.32;;;10.20;67.90;;;;;;5044857;28;20468;-56
2023/04/06 02:06:52;;;;;;;27.42;8.02;;;10.20;67.90;;;;;;5028441;28;20040;-55
2023/04/06 02:09:18;;;;;;;27.90;8.48;;;10.20;68.00;;;;;;5028421;28;20113;-56
2023/04/06 02:11:44;;;;;;;20.63;7.70;;;10.20;68.20;;;;;;5028585;28;20076;-56
2023/04/06 02:14:09;;;;;;;28.15;8.80;;;10.20;68.20;;;;;;5028345;28;20120;-56
2023/04/06 02:16:35;;;;;;;26.23;9.18;;;10.10;68.30;;;;;;5046262;28;20033;-56
2023/04/06 02:19:01;;;;;;;23.00;8.73;;;10.10;68.50;;;;;;5044722;28;20029;-56
2023/04/06 02:21:26;;;;;;;25.45;8.23;;;10.10;68.50;;;;;;5046185;28;20030;-56
2023/04/06 02:23:52;;;;;;;20.42;7.45;;;10.00;68.40;;;;;;5027963;28;20147;-56
2023/04/06 02:26:17;;;;;;;20.20;8.27;;;10.00;68.40;;;;;;5046183;28;20040;-56
2023/04/06 02:28:43;;;;;;;20.27;8.00;;;10.00;68.30;;;;;;5044491;28;20034;-56
2023/04/06 02:31:08;;;;;;;25.17;8.38;;;10.00;68.30;;;;;;5044589;28;20029;-56
2023/04/06 02:33:34;;;;;;;21.38;7.30;;;10.00;68.30;;;;;;5044461;28;20029;-56
2023/04/06 02:35:59;;;;;;;16.45;7.00;;;9.90;68.30;;;;;;5044173;28;20030;-56
2023/04/06 02:38:25;;;;;;;20.00;7.07;;;9.90;68.30;;;;;;5044278;28;20089;-56
2023/04/06 02:40:50;;;;;;;20.77;7.95;;;9.90;68.30;;;;;;5044768;28;20029;-56
2023/04/06 02:43:17;;;;;;;34.72;9.05;;;9.80;68.20;;;;;;5044283;28;20093;-56
2023/04/06 02:45:42;;;;;;;22.83;8.63;;;9.80;68.20;;;;;;5044336;28;20117;-56
2023/04/06 02:48:08;;;;;;;21.08;8.88;;;9.80;68.20;;;;;;5044226;28;20029;-56
2023/04/06 02:50:33;;;;;;;19.23;8.48;;;9.80;68.20;;;;;;5045141;28;20112;-56
2023/04/06 02:52:59;;;;;;;23.10;8.90;;;9.80;68.30;;;;;;5027737;28;20037;-56
2023/04/06 02:55:25;;;;;;;25.60;8.23;;;9.80;68.40;;;;;;5045382;28;20021;-56
2023/04/06 02:57:50;;;;;;;25.55;8.35;;;9.70;68.30;;;;;;5045479;28;20033;-57
2023/04/06 03:00:16;;;;;;;24.30;7.88;;;9.70;68.30;;;;;;5045119;28;20116;-57
2023/04/06 03:02:42;;;;;;;16.25;6.88;;;9.70;68.40;;;;;;5044161;28;20044;-57
2023/04/06 03:05:07;;;;;;;15.02;7.35;;;9.70;68.30;;;;;;5044185;28;20053;-57
2023/04/06 03:07:33;;;;;;;12.85;6.75;;;9.60;68.20;;;;;;5045278;28;20061;-57
2023/04/06 03:09:58;;;;;;;17.00;7.63;;;9.60;68.30;;;;;;5045222;28;20048;-57
2023/04/06 03:12:24;;;;;;;17.02;7.00;;;9.60;68.30;;;;;;5045387;28;20041;-57
2023/04/06 03:14:49;;;;;;;22.13;7.55;;;9.60;68.30;;;;;;5044825;28;20017;-57
2023/04/06 03:17:15;;;;;;;20.38;7.05;;;9.60;68.40;;;;;;5045594;28;20320;-57
2023/04/06 03:19:40;;;;;;;14.10;6.85;;;9.50;68.40;;;;;;5027331;28;20051;-57
2023/04/06 03:22:06;;;;;;;17.38;6.68;;;9.50;68.40;;;;;;5045069;28;20025;-56
2023/04/06 03:24:32;;;;;;;14.82;6.70;;;9.50;68.40;;;;;;5045343;28;20033;-57
2023/04/06 03:26:57;;;;;;;13.98;6.10;;;9.50;68.50;;;;;;5043411;28;20022;-57
2023/04/06 03:29:23;;;;;;;18.25;7.00;;;9.40;68.40;;;;;;5043600;28;20041;-57
2023/04/06 03:31:48;;;;;;;21.38;6.90;;;9.40;68.50;;;;;;5044873;28;20358;-57
2023/04/06 03:34:14;;;;;;;70.30;13.75;;;9.40;68.50;;;;;;5043700;28;20113;-57
2023/04/06 03:36:40;;;;;;;63.65;11.05;;;9.40;68.60;;;;;;5043274;28;20032;-57
2023/04/06 03:39:05;;;;;;;47.13;10.02;;;9.30;68.60;;;;;;5059799;28;20037;-57
2023/04/06 03:41:31;;;;;;;42.83;10.20;;;9.30;68.60;;;;;;5043443;28;20032;-57
2023/04/06 03:43:56;;;;;;;43.13;9.85;;;9.30;68.60;;;;;;5043409;28;20029;-57
2023/04/06 03:46:22;;;;;;;48.92;10.48;;;9.30;68.60;;;;;;5043452;28;20036;-57
2023/04/06 03:48:48;;;;;;;44.08;10.00;;;9.30;68.60;;;;;;5010475;28;20052;-57
2023/04/06 03:51:14;;;;;;;42.55;10.30;;;9.30;68.70;;;;;;5026510;28;20045;-57
2023/04/06 03:53:40;;;;;;;35.70;9.85;;;9.30;68.70;;;;;;5024955;28;20309;-57
2023/04/06 03:56:05;;;;;;;34.05;9.32;;;9.30;68.70;;;;;;5023507;28;20030;-57
2023/04/06 03:58:31;;;;;;;42.78;9.02;;;9.30;68.80;;;;;;5040573;28;20044;-57
2023/04/06 04:00:57;;;;;;;37.17;9.55;;;9.20;68.80;;;;;;5043257;28;20032;-57
2023/04/06 04:03:23;;;;;;;25.58;8.32;;;9.20;68.80;;;;;;5026550;28;20099;-57
2023/04/06 04:05:50;;;;;;;31.75;8.52;;;9.20;68.80;;;;;;5044498;28;20054;-57
2023/04/06 04:08:15;;;;;;;35.50;8.23;;;9.20;68.80;;;;;;5044436;28;20033;-57
2023/04/06 04:10:41;;;;;;;30.65;7.80;;;9.10;68.90;;;;;;5044697;28;20022;-57
2023/04/06 04:13:06;;;;;;;40.28;9.05;;;9.10;69.00;;;;;;5044475;28;20029;-57
2023/04/06 04:15:32;;;;;;;37.55;8.73;;;9.10;69.00;;;;;;5043553;28;20522;-57
2023/04/06 04:17:57;;;;;;;28.75;7.97;;;9.00;69.00;;;;;;5044365;28;20065;-57
2023/04/06 04:20:23;;;;;;;26.85;8.02;;;9.00;69.10;;;;;;5044480;28;20022;-56
2023/04/06 04:22:49;;;;;;;27.23;7.97;;;9.00;69.10;;;;;;5042946;28;20053;-57
2023/04/06 04:25:14;;;;;;;23.83;7.68;;;9.00;69.20;;;;;;5044486;28;20017;-57
2023/04/06 04:27:40;;;;;;;32.85;8.52;;;8.90;69.20;;;;;;5044323;28;20033;-57
2023/04/06 04:30:06;;;;;;;30.00;7.65;;;8.90;70.00;;;;;;5042861;28;20065;-57
2023/04/06 04:32:32;;;;;;;23.52;7.45;;;8.90;69.40;;;;;;5044127;28;20021;-57
2023/04/06 04:34:57;;;;;;;27.17;7.82;;;8.90;69.50;;;;;;5044271;28;20044;-57
2023/04/06 04:37:23;;;;;;;42.15;7.88;;;8.90;69.70;;;;;;5042952;28;20017;-57
2023/04/06 04:39:48;;;;;;;28.58;6.95;;;8.90;70.00;;;;;;5042698;28;20530;-57
2023/04/06 04:42:14;;;;;;;26.73;7.63;;;8.90;70.20;;;;;;5042824;28;20025;-57
2023/04/06 04:44:40;;;;;;;17.98;6.75;;;8.90;70.20;;;;;;5042707;28;20021;-56
2023/04/06 04:47:05;;;;;;;16.75;6.88;;;8.90;70.40;;;;;;5044219;28;20030;-57
2023/04/06 04:49:31;;;;;;;20.08;6.63;;;8.80;70.40;;;;;;5044199;28;20037;-57
2023/04/06 04:51:56;;;;;;;26.15;7.43;;;8.80;70.30;;;;;;5043933;28;20144;-57
2023/04/06 04:54:22;;;;;;;18.60;6.43;;;8.80;70.40;;;;;;5044228;28;20039;-57
2023/04/06 04:56:48;;;;;;;13.48;6.20;;;8.70;70.20;;;;;;5044189;28;20025;-57
2023/04/06 04:59:13;;;;;;;25.83;6.32;;;8.70;70.10;;;;;;5025982;28;20438;-57
2023/04/06 05:01:39;;;;;;;18.13;6.30;;;8.70;70.10;;;;;;5042835;28;20025;-57
2023/04/06 05:04:05;;;;;;;20.65;6.25;;;8.70;70.30;;;;;;5043865;28;20085;-57
2023/04/06 05:06:30;;;;;;;20.92;6.85;;;8.70;70.30;;;;;;5046193;28;20026;-57
2023/04/06 05:08:56;;;;;;;21.67;6.68;;;8.60;71.00;;;;;;5029525;28;20037;-57
2023/04/06 05:11:21;;;;;;;19.25;7.18;;;8.70;70.50;;;;;;5046265;28;20044;-57
2023/04/06 05:13:47;;;;;;;15.75;6.65;;;8.60;70.40;;;;;;5047494;28;20026;-57
2023/04/06 05:16:13;;;;;;;18.30;6.60;;;8.60;70.50;;;;;;5047728;28;20056;-57
2023/04/06 05:18:38;;;;;;;16.98;6.93;;;8.60;70.50;;;;;;5049115;28;20470;-57
2023/04/06 05:21:04;;;;;;;15.63;5.80;;;8.50;70.50;;;;;;5026079;28;20032;-57
2023/04/06 05:23:30;;;;;;;17.67;6.07;;;8.50;70.50;;;;;;5009559;28;20044;-57
2023/04/06 05:25:55;;;;;;;14.90;5.90;;;8.50;70.50;;;;;;5040784;28;20045;-57
2023/04/06 05:28:21;;;;;;;13.55;6.78;;;8.50;70.50;;;;;;5029199;28;20029;-57
2023/04/06 05:30:46;;;;;;;11.38;5.93;;;8.50;70.60;;;;;;5028825;28;20025;-57
2023/04/06 05:33:12;;;;;;;15.75;5.82;;;8.40;70.50;;;;;;5045669;28;20090;-57
2023/04/06 05:35:37;;;;;;;10.68;5.75;;;8.40;70.50;;;;;;5012289;28;20346;-57
2023/04/06 05:38:03;;;;;;;15.98;6.07;;;8.40;70.50;;;;;;5046829;28;20078;-57
2023/04/06 05:40:28;;;;;;;16.92;6.15;;;8.40;70.60;;;;;;5046794;28;20013;-57
2023/04/06 05:42:55;;;;;;;20.35;6.20;;;8.40;70.60;;;;;;5045326;28;20452;-57
2023/04/06 05:45:21;;;;;;;31.67;7.13;;;8.40;70.50;;;;;;5045216;28;20045;-57
2023/04/06 05:47:46;;;;;;;133.75;18.50;;;8.40;70.50;;;;;;5028825;28;20030;-57
2023/04/06 05:50:13;;;;;;;43.20;8.88;;;8.40;70.60;;;;;;5046521;28;20025;-57
2023/04/06 05:52:41;;;;;;;33.08;7.78;;;8.30;70.50;;;;;;5045186;28;20038;-57
2023/04/06 05:55:07;;;;;;;85.07;11.43;;;8.50;70.50;;;;;;5045460;28;20021;-57
2023/04/06 05:57:32;;;;;;;56.90;11.25;;;8.30;70.40;;;;;;5045261;28;20771;-57
2023/04/06 05:59:58;;;;;;;46.05;8.85;;;8.30;70.50;;;;;;5046287;28;20052;-57
2023/04/06 06:02:23;;;;;;;97.75;12.25;;;8.30;70.50;;;;;;5046185;28;20060;-57
2023/04/06 06:04:49;;;;;;;64.88;10.95;;;8.20;70.50;;;;;;5028205;28;20018;-57
2023/04/06 06:07:15;;;;;;;72.78;12.57;;;8.20;70.50;;;;;;5043156;28;20086;-57
2023/04/06 06:09:40;;;;;;;76.82;13.02;;;8.20;70.50;;;;;;5045731;28;20033;-57
2023/04/06 06:12:06;;;;;;;81.05;12.52;;;8.20;70.50;;;;;;5044615;28;20571;-57
2023/04/06 06:14:31;;;;;;;84.88;14.07;;;8.20;70.50;;;;;;5045904;28;20026;-57
2023/04/06 06:16:57;;;;;;;62.15;11.20;;;8.20;70.50;;;;;;5044115;28;20152;-57
2023/04/06 06:19:22;;;;;;;71.10;14.57;;;8.10;70.60;;;;;;5046379;28;20415;-57
2023/04/06 06:21:48;;;;;;;106.80;15.05;;;8.10;70.60;;;;;;5045856;28;20036;-57
2023/04/06 06:24:13;;;;;;;83.95;12.90;;;8.10;70.60;;;;;;5046078;28;20093;-57
2023/04/06 06:26:39;;;;;;;68.60;12.95;;;8.10;70.60;;;;;;5043853;28;20033;-57
2023/04/06 06:29:06;;;;;;;57.28;12.23;;;8.10;70.50;;;;;;5044232;28;20034;-57
2023/04/06 06:31:31;;;;;;;46.15;10.43;;;8.10;70.60;;;;;;5044345;28;20028;-57
2023/04/06 06:33:57;;;;;;;65.78;11.38;;;8.00;70.60;;;;;;5039634;28;20022;-57
2023/04/06 06:36:22;;;;;;;58.63;11.00;;;8.10;70.80;;;;;;5057692;28;20076;-57
2023/04/06 06:38:48;;;;;;;59.92;11.50;;;8.10;70.70;;;;;;5043029;28;20128;-57
2023/04/06 06:41:13;;;;;;;44.67;9.88;;;8.00;70.60;;;;;;5045380;28;20025;-57
2023/04/06 06:43:39;;;;;;;72.05;11.90;;;8.00;70.70;;;;;;5043596;28;20034;-57
2023/04/06 06:46:05;;;;;;;69.15;11.52;;;8.00;70.70;;;;;;5045950;28;20089;-57
2023/04/06 06:48:31;;;;;;;96.13;13.60;;;8.00;70.70;;;;;;5029795;28;20034;-57
2023/04/06 06:50:56;;;;;;;68.22;11.68;;;8.00;70.80;;;;;;5039741;28;20120;-57
2023/04/06 06:53:23;;;;;;;57.28;10.85;;;8.10;70.90;;;;;;5039901;28;20093;-57
2023/04/06 06:55:48;;;;;;;61.58;10.40;;;8.00;70.80;;;;;;5027783;28;20132;-57
2023/04/06 06:58:14;;;;;;;71.15;12.15;;;8.00;70.90;;;;;;5042298;28;20030;-57
2023/04/06 07:00:40;;;;;;;73.65;12.88;;;8.10;70.90;;;;;;5042846;28;20049;-57
2023/04/06 07:03:06;;;;;;;48.25;10.40;;;8.00;70.80;;;;;;5076856;28;20037;-57
2023/04/06 07:05:31;;;;;;;55.42;10.73;;;8.10;70.90;;;;;;5045299;28;20017;-57
2023/04/06 07:07:57;;;;;;;39.95;10.18;;;8.10;70.80;;;;;;5044957;28;20121;-57
2023/04/06 07:10:22;;;;;;;62.45;10.25;;;8.10;71.40;;;;;;5025667;28;20025;-58
2023/04/06 07:12:48;;;;;;;48.83;10.90;;;8.10;70.80;;;;;;5046605;28;20089;-57
2023/04/06 07:15:14;;;;;;;49.45;10.35;;;8.10;70.70;;;;;;5024278;28;20022;-57
2023/04/06 07:17:41;;;;;;;53.00;9.98;;;8.10;70.80;;;;;;5024276;28;20038;-58
2023/04/06 07:20:07;;;;;;;46.20;10.10;;;8.10;71.40;;;;;;5043554;28;20033;-56
2023/04/06 07:22:32;;;;;;;42.75;9.02;;;8.10;70.80;;;;;;5076957;28;20037;-57
2023/04/06 07:24:58;;;;;;;40.70;8.82;;;8.10;70.80;;;;;;5043754;28;20082;-57
2023/04/06 07:27:24;;;;;;;42.53;10.40;;;8.10;70.80;;;;;;5026302;28;20022;-57
2023/04/06 07:29:49;;;;;;;28.27;8.85;;;8.10;70.80;;;;;;5043058;28;20085;-57
2023/04/06 07:32:15;;;;;;;98.93;15.80;;;8.10;70.80;;;;;;5044867;28;20286;-57
2023/04/06 07:34:40;;;;;;;91.43;15.07;;;8.10;70.80;;;;;;5043239;28;20077;-57
2023/04/06 07:37:06;;;;;;;76.72;12.45;;;8.10;71.00;;;;;;5044766;28;20044;-57
2023/04/06 07:39:31;;;;;;;62.55;13.05;;;8.10;71.70;;;;;;5042149;28;20068;-57
2023/04/06 07:41:57;;;;;;;64.97;11.38;;;8.10;71.00;;;;;;5044492;28;20040;-57
2023/04/06 07:44:22;;;;;;;67.72;12.40;;;8.10;71.00;;;;;;5044515;28;20038;-57
2023/04/06 07:46:48;;;;;;;163.32;18.95;;;8.10;71.00;;;;;;5043128;28;20029;-57
2023/04/06 07:49:14;;;;;;;84.15;14.82;;;8.10;71.00;;;;;;5026517;28;20032;-57
2023/04/06 07:51:39;;;;;;;115.18;15.40;;;8.10;71.00;;;;;;5044676;28;20028;-57
2023/04/06 07:54:05;;;;;;;80.88;15.20;;;8.10;71.10;;;;;;5043269;28;20037;-57
2023/04/06 07:56:31;;;;;;;76.18;13.75;;;8.10;71.10;;;;;;5044367;28;20017;-57
2023/04/06 07:58:57;;;;;;;80.45;13.18;;;8.10;71.00;;;;;;5044517;28;20030;-57
2023/04/06 08:01:23;;;;;;;89.78;14.82;;;8.10;71.00;;;;;;5043074;28;20138;-58
2023/04/06 08:03:50;;;;;;;81.90;14.57;;;8.10;71.10;;;;;;5044838;28;20084;-58
2023/04/06 08:06:15;;;;;;;70.38;14.57;;;8.20;71.30;;;;;;5043337;28;20029;-58
2023/04/06 08:08:41;;;;;;;79.07;13.60;;;8.10;71.20;;;;;;5059284;28;20060;-58
2023/04/06 08:11:07;;;;;;;94.05;15.18;;;8.10;71.50;;;;;;5043297;28;20032;-58
2023/04/06 08:13:33;;;;;;;92.30;15.20;;;8.20;71.60;;;;;;5042909;28;20036;-58
2023/04/06 08:16:00;;;;;;;62.00;12.45;;;8.10;71.70;;;;;;5042657;28;20025;-58
2023/04/06 08:18:25;;;;;;;73.38;13.20;;;8.10;72.20;;;;;;5026213;28;20107;-58
2023/04/06 08:20:51;;;;;;;77.80;13.13;;;8.10;71.50;;;;;;5042536;28;20029;-58
2023/04/06 08:23:17;;;;;;;67.03;13.60;;;8.20;71.60;;;;;;5044096;28;20064;-58
2023/04/06 08:25:42;;;;;;;63.22;13.30;;;8.20;71.60;;;;;;5026058;28;20036;-58
2023/04/06 08:28:09;;;;;;;63.15;13.82;;;8.20;71.60;;;;;;5042672;28;20065;-58
2023/04/06 08:30:35;;;;;;;66.70;12.63;;;8.20;71.60;;;;;;5043634;28;20122;-58
2023/04/06 08:33:00;;;;;;;66.15;13.43;;;8.20;72.30;;;;;;5043298;28;20033;-56
2023/04/06 08:35:26;;;;;;;88.07;13.85;;;8.20;71.90;;;;;;5044007;28;20032;-56
2023/04/06 08:37:52;;;;;;;74.07;13.93;;;8.20;71.70;;;;;;5025447;28;20119;-56
2023/04/06 08:40:18;;;;;;;74.13;15.57;;;8.20;71.70;;;;;;5047082;28;20033;-56
2023/04/06 08:42:52;;;;;;;94.85;15.57;;;8.20;71.90;;;;;;5029577;28;20498;-56
2023/04/06 08:45:20;;;;;;;78.47;14.20;;;8.30;72.20;;;;;;5047672;28;20041;-56
2023/04/06 08:47:52;;;;;;;82.35;13.70;;;8.30;72.30;;;;;;5047252;28;20037;-56
2023/04/06 08:50:18;;;;;;;82.80;15.88;;;8.30;72.00;;;;;;5030552;28;20049;-56
2023/04/06 08:52:47;;;;;;;90.82;13.75;;;8.30;72.00;;;;;;5047214;28;20405;-56
2023/04/06 08:55:13;;;;;;;82.05;14.90;;;8.30;72.00;;;;;;5030163;28;20044;-56
2023/04/06 08:57:38;;;;;;;124.93;19.38;;;8.40;71.80;;;;;;5013168;28;20029;-56
2023/04/06 09:00:07;;;;;;;93.47;15.57;;;8.40;71.90;;;;;;5045940;28;20033;-56
2023/04/06 09:02:33;;;;;;;93.65;16.50;;;8.40;71.90;;;;;;5045375;28;20473;-56
2023/04/06 09:04:58;;;;;;;111.50;17.00;;;8.40;72.00;;;;;;5046918;28;20108;-56
2023/04/06 09:07:24;;;;;;;133.95;18.45;;;8.40;71.90;;;;;;5029186;28;20091;-56
2023/04/06 09:09:51;;;;;;;116.78;17.30;;;8.50;72.00;;;;;;5045477;28;20037;-56
2023/04/06 09:12:27;;;;;;;134.80;20.35;;;8.50;72.00;;;;;;5045152;28;20036;-56
2023/04/06 09:14:53;;;;;;;111.72;19.35;;;8.50;72.10;;;;;;5048225;28;20026;-56
2023/04/06 09:17:26;;;;;;;135.48;20.13;;;8.50;72.00;;;;;;5045907;28;20021;-56
2023/04/06 09:19:51;;;;;;;101.47;17.45;;;8.50;72.20;;;;;;5048853;28;20029;-56
2023/04/06 09:22:17;;;;;;;109.28;18.20;;;8.60;72.20;;;;;;5045772;28;20028;-56
2023/04/06 09:24:51;;;;;;;87.53;15.48;;;8.60;72.90;;;;;;5028881;28;20131;-56
2023/04/06 09:27:16;;;;;;;99.93;15.05;;;8.60;72.10;;;;;;5046740;28;20125;-56
2023/04/06 09:29:43;;;;;;;131.55;17.88;;;8.60;71.90;;;;;;5045483;28;20108;-56
2023/04/06 09:32:10;;;;;;;140.27;21.95;;;8.70;71.90;;;;;;5029582;28;20051;-56
2023/04/06 09:34:37;;;;;;;118.85;17.33;;;8.70;71.90;;;;;;5029226;28;20037;-56
2023/04/06 09:37:23;;;;;;;86.22;17.63;;;8.70;71.70;;;;;;5046859;28;20031;-56
2023/04/06 09:39:51;;;;;;;102.05;16.95;;;8.80;71.60;;;;;;5046427;28;20059;-56
2023/04/06 09:42:24;;;;;;;100.25;15.38;;;8.80;71.30;;;;;;5045143;28;20033;-56
2023/04/06 09:44:50;;;;;;;107.70;17.55;;;8.80;71.10;;;;;;5045192;28;20138;-56
2023/04/06 09:47:15;;;;;;;142.05;20.67;;;8.80;71.20;;;;;;5028585;28;20033;-56
2023/04/06 09:49:41;;;;;;;125.55;16.67;;;8.80;71.20;;;;;;5028134;28;20029;-56
2023/04/06 09:52:07;;;;;;;74.57;15.00;;;8.80;70.90;;;;;;5046347;28;20034;-56
2023/04/06 09:54:32;;;;;;;94.95;15.80;;;8.90;70.40;;;;;;5044845;28;20037;-55
2023/04/06 09:57:03;;;;;;;80.25;15.68;;;8.90;70.10;;;;;;5045561;28;20030;-56
2023/04/06 09:59:32;;;;;;;95.25;16.40;;;8.90;69.80;;;;;;5046644;28;20039;-56
2023/04/06 10:01:58;;;;;;;135.95;19.55;;;9.00;69.80;;;;;;5046140;28;20021;-56
2023/04/06 10:04:43;;;;;;;120.25;15.23;;;9.00;69.80;;;;;;5044861;28;20072;-56
2023/04/06 10:07:10;;;;;;;125.00;15.38;;;9.00;69.40;;;;;;5046261;28;20449;-56
2023/04/06 10:09:36;;;;;;;90.95;14.85;;;9.10;68.90;;;;;;5028241;28;20037;-56
2023/04/06 10:12:05;;;;;;;95.72;13.80;;;9.10;68.80;;;;;;5011860;28;20036;-56
2023/04/06 10:14:37;;;;;;;94.32;14.35;;;9.10;68.50;;;;;;5024519;28;20033;-55
2023/04/06 10:17:03;;;;;;;79.20;13.23;;;9.10;68.30;;;;;;5057118;28;20101;-56
2023/04/06 10:19:32;;;;;;;79.55;12.50;;;9.20;67.90;;;;;;5041000;28;20045;-56
2023/04/06 10:21:58;;;;;;;80.18;13.02;;;9.20;67.40;;;;;;5057907;28;20018;-56
2023/04/06 10:24:23;;;;;;;94.95;13.13;;;9.20;67.30;;;;;;5057902;28;20037;-56
2023/04/06 10:27:01;;;;;;;72.10;12.60;;;9.30;67.10;;;;;;5057645;28;20018;-56
2023/04/06 10:29:27;;;;;;;59.28;12.20;;;9.30;66.90;;;;;;5024533;28;20038;-56
2023/04/06 10:31:52;;;;;;;56.25;11.73;;;9.30;66.60;;;;;;5057857;28;20018;-56
2023/04/06 10:34:18;;;;;;;68.70;11.02;;;9.40;66.60;;;;;;5057804;28;20056;-56
2023/04/06 10:36:43;;;;;;;60.15;11.23;;;9.40;66.20;;;;;;5024585;28;20049;-56
2023/04/06 10:39:09;;;;;;;70.28;11.93;;;9.40;66.20;;;;;;5040876;28;20037;-56
2023/04/06 10:41:36;;;;;;;71.30;11.27;;;9.50;65.90;;;;;;5024100;28;20026;-56
2023/04/06 10:44:02;;;;;;;67.75;10.65;;;9.50;65.60;;;;;;5040718;28;20060;-56
2023/04/06 10:46:29;;;;;;;82.90;12.07;;;9.60;65.40;;;;;;5024008;28;20030;-56
2023/04/06 10:48:54;;;;;;;59.53;10.40;;;9.70;65.60;;;;;;5025468;28;20144;-56
2023/04/06 10:51:28;;;;;;;57.45;10.43;;;9.70;65.50;;;;;;5023974;28;20093;-55
2023/04/06 10:53:54;;;;;;;67.20;11.95;;;9.80;65.30;;;;;;5040235;28;20026;-56
2023/04/06 10:56:22;;;;;;;75.80;12.18;;;9.80;65.40;;;;;;5025362;28;20022;-56
2023/04/06 10:58:48;;;;;;;62.13;12.27;;;9.90;65.40;;;;;;5040589;28;20033;-56
2023/04/06 11:01:15;;;;;;;65.10;11.70;;;9.90;65.00;;;;;;5024673;28;20033;-56
2023/04/06 11:03:45;;;;;;;88.82;12.18;;;10.00;65.70;;;;;;5023755;28;20038;-56
2023/04/06 11:06:17;;;;;;;96.32;13.40;;;10.00;65.00;;;;;;5025124;28;20036;-56
2023/04/06 11:08:42;;;;;;;71.72;11.57;;;10.10;64.90;;;;;;5040173;28;20030;-56
2023/04/06 11:11:10;;;;;;;83.43;13.18;;;10.10;64.70;;;;;;5040042;28;20018;-55
2023/04/06 11:13:40;;;;;;;72.88;12.15;;;10.20;64.70;;;;;;5040072;28;20053;-56
2023/04/06 11:16:05;;;;;;;85.78;13.35;;;10.20;64.80;;;;;;5057690;28;20025;-56
2023/04/06 11:18:31;;;;;;;90.63;13.77;;;10.30;65.00;;;;;;5042127;28;20034;-56
2023/04/06 11:20:57;;;;;;;96.32;15.82;;;10.30;65.00;;;;;;5041656;28;20071;-56
2023/04/06 11:23:24;;;;;;;81.53;12.70;;;10.40;65.80;;;;;;5054682;28;20120;-56
2023/04/06 11:25:51;;;;;;;89.95;13.00;;;10.50;65.00;;;;;;5059112;28;20037;-56
2023/04/06 11:28:17;;;;;;;104.78;14.63;;;10.60;64.70;;;;;;5043511;28;20041;-56
2023/04/06 11:30:42;;;;;;;105.32;14.48;;;10.60;64.80;;;;;;5042549;28;20036;-56
2023/04/06 11:33:08;;;;;;;81.30;13.30;;;10.70;65.20;;;;;;5041698;28;20029;-56
2023/04/06 11:35:33;;;;;;;97.05;14.18;;;10.70;64.30;;;;;;5041126;28;20056;-56
2023/04/06 11:38:02;;;;;;;89.70;14.38;;;10.70;63.90;;;;;;5026539;28;20030;-56
2023/04/06 11:40:29;;;;;;;84.00;13.98;;;10.80;63.80;;;;;;5025992;28;20040;-56
2023/04/06 11:42:55;;;;;;;70.78;12.55;;;10.80;63.60;;;;;;5041890;28;20052;-56
2023/04/06 11:45:21;;;;;;;91.70;12.85;;;10.90;63.50;;;;;;5026239;28;20025;-56
2023/04/06 11:47:59;;;;;;;84.20;11.77;;;11.00;63.20;;;;;;5026079;28;20075;-56
2023/04/06 11:50:25;;;;;;;59.00;10.57;;;11.00;63.10;;;;;;5042381;28;20052;-58
2023/04/06 11:53:00;;;;;;;48.05;11.07;;;11.10;63.40;;;;;;5028081;28;20385;-56
2023/04/06 11:55:26;;;;;;;63.53;10.55;;;11.10;63.40;;;;;;5043625;28;20073;-56
2023/04/06 11:57:52;;;;;;;67.68;11.35;;;11.20;63.20;;;;;;5039075;28;20119;-55
2023/04/06 12:00:18;;;;;;;52.53;10.43;;;11.20;64.10;;;;;;5070034;28;20018;-56
2023/04/06 12:02:47;;;;;;;57.03;10.55;;;11.30;62.90;;;;;;5046130;28;20030;-56
2023/04/06 12:05:12;;;;;;;62.15;10.95;;;11.30;62.80;;;;;;5025292;28;20079;-55
2023/04/06 12:07:38;;;;;;;52.67;10.23;;;11.40;62.20;;;;;;5057444;28;20032;-55
2023/04/06 12:10:04;;;;;;;67.43;11.75;;;11.50;62.00;;;;;;5040372;28;20102;-55
2023/04/06 12:12:30;;;;;;;53.40;9.50;;;11.60;61.70;;;;;;5038832;28;20025;-55
2023/04/06 12:14:56;;;;;;;76.43;11.13;;;11.60;61.40;;;;;;5065084;28;20025;-56
2023/04/06 12:17:21;;;;;;;58.63;11.00;;;11.70;61.30;;;;;;5046070;28;20024;-56
2023/04/06 12:19:47;;;;;;;99.32;13.10;;;11.70;61.60;;;;;;5043090;28;20029;-55
2023/04/06 12:22:13;;;;;;;81.90;12.57;;;11.80;61.00;;;;;;5049332;28;20053;-56
2023/04/06 12:24:38;;;;;;;81.38;12.90;;;11.90;61.00;;;;;;5046051;28;20079;-55
2023/04/06 12:27:04;;;;;;;63.90;12.80;;;11.90;60.80;;;;;;5053770;28;20025;-56
2023/04/06 12:29:30;;;;;;;83.22;10.95;;;12.00;60.50;;;;;;5042402;28;20041;-56